Impacts TAF Board INFO
FOR SITUATIONAL AWARENESS. NOT TO BE USED FOR FLIGHT PLANNING PURPOSES.
IDs:

KBFM - Mobile/Downtown Arpt, AL, US

Issued at 0537 UTC 20 Jan 2018
Updated at 0910 UTC 20 Jan 2018
Potential Impact None Slight Moderate High
Time0853Z 20/10Z 20/11Z 20/12Z 20/13Z 20/14Z 20/15Z 20/16Z 20/17Z 20/18Z 20/19Z 20/20Z 20/21Z 20/22Z>>
Type OBS PRVL PRVL PRVL PRVL PRVL PRVL PRVL PRVL PRVL PRVL PRVL PRVL PRVL
VIS 10 >6 >6 >6 >6 >6 >6 >6 >6 >6 >6 >6 >6 >6
CIG -- 250 250 250 250 250 250 250 250 250 250 250 250 250
Cover CLR BKN BKN BKN BKN BKN BKN BKN BKN BKN BKN BKN OVC OVC
FltCat VFR VFR VFR VFR VFR VFR VFR VFR VFR VFR VFR VFR VFR VFR
WX -- -- -- -- -- -- -- -- -- -- -- -- -- --
WDir 310 VRB VRB 80 80 80 80 80 80 80 80 80 140 140
WSpd 4 0 0 3 3 3 3 3 3 3 3 3 7 7
WGst -- -- -- -- -- -- -- -- -- -- -- -- -- --

Raw TAF
KBFM 200537Z 2006/2106 00000KT P6SM BKN250
  FM201200 08003KT P6SM SCT100 BKN250
  FM202100 14007KT P6SM SCT060 OVC250


Raw METAR
KBFM 200853Z AUTO 31004KT 10SM CLR 02/M01 A3028 RMK AO2 SLP253 T00221006 58004
KBFM 200753Z AUTO 31003KT 10SM CLR 02/00 A3028 RMK AO2 SLP254 T00170000
KBFM 200653Z AUTO 00000KT 10SM CLR 02/M01 A3029 RMK AO2 SLP257 T00171006

METAR Board
Radar Display
Forecast Discussion

FOR SITUATIONAL AWARENESS. NOT TO BE USED FOR FLIGHT PLANNING PURPOSES.